createdAt,value
2023-04-12T00:01:22.171Z,21.95
2023-04-12T00:06:27.750Z,20.70
2023-04-12T00:11:32.233Z,22.02
2023-04-12T00:16:36.294Z,22.73
2023-04-12T00:21:39.025Z,21.38
2023-04-12T00:26:41.699Z,22.13
2023-04-12T00:31:44.388Z,21.85
2023-04-12T00:36:47.118Z,21.73
2023-04-12T00:41:49.857Z,22.50
2023-04-12T00:46:52.582Z,22.83
2023-04-12T00:51:55.503Z,22.00
2023-04-12T00:57:00.038Z,22.48
2023-04-12T01:02:03.389Z,22.58
2023-04-12T01:07:21.692Z,23.52
2023-04-12T01:12:39.351Z,24.08
2023-04-12T01:18:02.956Z,23.23
2023-04-12T01:23:43.060Z,22.92
2023-04-12T01:28:47.052Z,21.70
2023-04-12T01:33:52.090Z,24.38
2023-04-12T01:38:55.837Z,24.08
2023-04-12T01:43:58.644Z,24.77
2023-04-12T01:49:03.422Z,24.23
2023-04-12T01:54:13.701Z,24.63
2023-04-12T01:59:17.999Z,22.40
2023-04-12T02:04:22.093Z,22.27
2023-04-12T02:09:24.783Z,23.70
2023-04-12T02:14:27.707Z,23.13
2023-04-12T02:19:30.617Z,23.60
2023-04-12T02:24:33.792Z,22.52
2023-04-12T02:29:36.356Z,23.48
2023-04-12T02:34:40.085Z,23.33
2023-04-12T02:39:57.088Z,23.95
2023-04-12T02:45:01.324Z,23.00
2023-04-12T02:50:05.015Z,23.58
2023-04-12T02:55:13.270Z,23.30
2023-04-12T03:00:16.946Z,23.60
2023-04-12T03:05:23.295Z,24.42
2023-04-12T03:10:27.327Z,24.25
2023-04-12T03:15:39.844Z,23.60
2023-04-12T03:20:46.015Z,24.55
2023-04-12T03:25:50.936Z,24.52
2023-04-12T03:31:13.791Z,24.67
2023-04-12T03:36:24.273Z,24.17
2023-04-12T03:41:46.661Z,25.52
2023-04-12T03:46:50.527Z,26.52
2023-04-12T03:51:53.549Z,29.20
2023-04-12T03:56:56.862Z,28.10
2023-04-12T04:02:27.954Z,26.88
2023-04-12T04:07:33.535Z,25.25
2023-04-12T04:12:36.226Z,28.17
2023-04-12T04:17:40.467Z,27.58
2023-04-12T04:22:44.782Z,28.15
2023-04-12T04:27:49.642Z,28.30
2023-04-12T04:32:53.020Z,30.52
2023-04-12T04:37:59.019Z,30.45
2023-04-12T04:43:03.189Z,28.85
2023-04-12T04:48:11.788Z,29.70
2023-04-12T04:53:16.547Z,30.73
2023-04-12T04:58:19.300Z,30.02
2023-04-12T05:03:22.071Z,29.65
2023-04-12T05:08:25.267Z,28.10
2023-04-12T05:13:27.932Z,24.80
2023-04-12T05:18:30.702Z,22.02
2023-04-12T05:23:42.860Z,19.42
2023-04-12T05:28:47.721Z,16.50
2023-04-12T05:33:51.080Z,14.02
2023-04-12T05:38:54.886Z,13.20
2023-04-12T05:43:57.742Z,15.77
2023-04-12T05:49:00.729Z,15.48
2023-04-12T05:54:07.617Z,15.27
2023-04-12T05:59:12.530Z,13.57
2023-04-12T06:04:15.554Z,13.13
2023-04-12T06:09:19.365Z,12.25
2023-04-12T06:14:21.991Z,12.05
2023-04-12T06:19:24.668Z,10.80
2023-04-12T06:24:27.265Z,10.52
2023-04-12T06:29:30.578Z,11.18
2023-04-12T06:34:34.852Z,10.00
2023-04-12T06:39:42.818Z,10.23
2023-04-12T06:44:45.767Z,9.65
2023-04-12T06:49:48.555Z,11.90
2023-04-12T06:54:51.171Z,8.35
2023-04-12T06:59:53.775Z,7.53
2023-04-12T07:04:56.397Z,7.28
2023-04-12T07:10:00.481Z,7.53
2023-04-12T07:15:03.234Z,7.80
2023-04-12T07:20:06.189Z,7.30
2023-04-12T07:25:10.922Z,7.85
2023-04-12T07:30:14.555Z,9.85
2023-04-12T07:35:17.260Z,10.10
2023-04-12T07:40:20.562Z,10.63
2023-04-12T07:45:23.317Z,10.30
2023-04-12T07:50:26.104Z,10.38
2023-04-12T07:55:28.734Z,11.90
2023-04-12T08:00:32.689Z,10.93
2023-04-12T08:05:35.383Z,12.20
2023-04-12T08:10:40.583Z,10.82
2023-04-12T08:15:47.662Z,10.15
2023-04-12T08:20:50.694Z,12.15
2023-04-12T08:26:00.124Z,14.23
2023-04-12T08:31:03.049Z,9.38
2023-04-12T08:36:06.271Z,11.00
2023-04-12T08:41:08.936Z,8.85
2023-04-12T08:46:15.992Z,9.40
2023-04-12T08:51:20.233Z,9.30
2023-04-12T08:56:24.054Z,9.40
2023-04-12T09:01:27.278Z,10.50
2023-04-12T09:06:30.050Z,8.75
2023-04-12T09:11:32.830Z,7.93
2023-04-12T09:16:36.291Z,8.98
2023-04-12T09:21:53.370Z,9.63
2023-04-12T09:27:06.487Z,8.45
2023-04-12T09:32:09.944Z,9.05
2023-04-12T09:37:18.275Z,8.98
2023-04-12T09:47:42.014Z,8.98
2023-04-12T09:52:44.958Z,8.95
2023-04-12T09:57:51.098Z,9.15
2023-04-12T10:02:55.926Z,8.77
2023-04-12T10:07:59.037Z,7.60
2023-04-12T10:13:06.906Z,6.88
2023-04-12T10:18:11.866Z,7.20
2023-04-12T10:23:14.837Z,7.80
2023-04-12T10:28:21.774Z,7.25
2023-04-12T10:33:30.903Z,8.40
2023-04-12T10:38:48.849Z,8.68
2023-04-12T10:44:28.917Z,7.82
2023-04-12T10:49:32.475Z,8.15
2023-04-12T10:54:36.004Z,9.00
2023-04-12T10:59:57.513Z,8.55
2023-04-12T11:05:10.943Z,7.90
2023-04-12T11:10:47.113Z,7.70
2023-04-12T11:16:06.884Z,7.65
2023-04-12T11:21:10.540Z,7.65
2023-04-12T11:26:13.424Z,8.07
2023-04-12T11:31:20.460Z,7.85
2023-04-12T11:36:23.185Z,9.23
2023-04-12T11:41:26.039Z,8.35
2023-04-12T11:46:34.359Z,7.72
2023-04-12T11:51:36.993Z,8.20
2023-04-12T11:56:40.450Z,7.50
2023-04-12T12:01:43.189Z,8.13
2023-04-12T12:06:47.341Z,8.80
2023-04-12T12:11:51.441Z,9.00
2023-04-12T12:16:59.538Z,7.22
2023-04-12T12:22:13.033Z,8.23
2023-04-12T12:27:23.479Z,8.55
2023-04-12T12:32:27.403Z,7.75
2023-04-12T12:37:31.164Z,8.55
2023-04-12T12:42:36.685Z,8.30
2023-04-12T12:47:52.062Z,8.40
2023-04-12T12:52:56.173Z,8.02
2023-04-12T12:58:06.604Z,8.93
2023-04-12T13:08:13.095Z,8.60
2023-04-12T13:13:15.834Z,8.00
2023-04-12T13:18:18.582Z,7.60
2023-04-12T13:23:21.237Z,9.63
2023-04-12T13:28:23.902Z,8.30
2023-04-12T13:33:27.219Z,8.43
2023-04-12T13:38:31.387Z,7.28
2023-04-12T13:43:34.063Z,8.32
2023-04-12T13:48:37.495Z,7.05
2023-04-12T13:53:40.139Z,6.65
2023-04-12T13:58:43.298Z,7.03
2023-04-12T14:03:46.054Z,7.40
2023-04-12T14:08:48.661Z,6.82
2023-04-12T14:13:51.532Z,6.80
2023-04-12T14:18:54.138Z,7.10
2023-04-12T14:23:57.529Z,6.68
2023-04-12T14:29:00.714Z,7.22
2023-04-12T14:34:04.298Z,6.03
2023-04-12T14:39:10.440Z,6.07
2023-04-12T14:44:13.603Z,6.78
2023-04-12T14:49:16.268Z,6.38
2023-04-12T14:54:19.068Z,7.85
2023-04-12T14:59:21.838Z,10.32
2023-04-12T15:04:24.781Z,8.35
2023-04-12T15:09:28.797Z,6.50
2023-04-12T15:14:31.571Z,6.15
2023-04-12T15:19:34.202Z,6.47
2023-04-12T15:24:37.155Z,6.07
2023-04-12T15:29:40.065Z,6.82
2023-04-12T15:34:42.732Z,8.35
2023-04-12T15:39:45.741Z,7.32
2023-04-12T15:44:48.296Z,7.57
2023-04-12T15:49:51.459Z,7.85
2023-04-12T15:54:54.104Z,8.38
2023-04-12T15:59:59.506Z,7.43
2023-04-12T16:05:02.315Z,7.70
2023-04-12T16:10:06.493Z,8.23
2023-04-12T16:15:09.401Z,9.27
2023-04-12T16:20:13.523Z,9.68
2023-04-12T16:25:20.034Z,9.85
2023-04-12T16:30:23.106Z,9.93
2023-04-12T16:35:25.964Z,11.13
2023-04-12T16:40:28.883Z,10.60
2023-04-12T16:45:32.145Z,10.63
2023-04-12T16:50:34.783Z,9.90
2023-04-12T16:55:44.575Z,11.88
2023-04-12T17:00:47.203Z,12.43
2023-04-12T17:05:50.701Z,12.15
2023-04-12T17:10:54.556Z,11.70
2023-04-12T17:15:57.724Z,13.68
2023-04-12T17:21:00.710Z,14.73
2023-04-12T17:26:04.573Z,12.95
2023-04-12T17:31:08.932Z,14.10
2023-04-12T17:36:12.164Z,15.35
2023-04-12T17:41:17.682Z,17.60
2023-04-12T17:46:20.565Z,15.07
2023-04-12T17:51:23.310Z,16.63
2023-04-12T17:56:26.383Z,15.07
2023-04-12T18:01:29.067Z,13.35
2023-04-12T18:06:32.567Z,12.13
2023-04-12T18:11:38.889Z,12.82
2023-04-12T18:16:41.991Z,14.02
2023-04-12T18:21:48.506Z,12.90
2023-04-12T18:26:51.266Z,12.55
2023-04-12T18:31:53.998Z,18.10
2023-04-12T18:36:56.990Z,14.10
2023-04-12T18:42:01.553Z,16.13
2023-04-12T18:47:04.510Z,14.93
2023-04-12T18:52:07.417Z,14.40
2023-04-12T18:57:10.760Z,12.77
2023-04-12T19:02:15.219Z,13.60
2023-04-12T19:07:18.040Z,13.68
2023-04-12T19:12:21.007Z,13.20
2023-04-12T19:17:27.813Z,13.88
2023-04-12T19:22:30.920Z,17.40
2023-04-12T19:27:39.227Z,17.35
2023-04-12T19:32:42.522Z,15.20
2023-04-12T19:37:45.471Z,16.95
2023-04-12T19:42:48.458Z,18.20
2023-04-12T19:47:51.360Z,16.10
2023-04-12T19:52:54.136Z,15.27
2023-04-12T19:57:56.962Z,15.82
2023-04-12T20:02:59.636Z,13.63
2023-04-12T20:08:02.302Z,13.32
2023-04-12T20:13:08.224Z,11.93
2023-04-12T20:18:13.013Z,12.15
2023-04-12T20:23:15.698Z,12.45
2023-04-12T20:28:18.623Z,12.85
2023-04-12T20:33:22.094Z,12.82
2023-04-12T20:38:26.559Z,14.73
2023-04-12T20:43:29.184Z,12.75
2023-04-12T20:48:32.247Z,12.07
2023-04-12T20:53:36.119Z,11.45
2023-04-12T20:58:39.091Z,11.30
2023-04-12T21:03:43.433Z,10.20
2023-04-12T21:08:47.562Z,10.88
2023-04-12T21:13:50.900Z,9.98
2023-04-12T21:18:53.793Z,11.55
2023-04-12T21:23:56.549Z,11.63
2023-04-12T21:28:59.518Z,9.63
2023-04-12T21:34:02.336Z,9.73
2023-04-12T21:39:04.983Z,9.52
2023-04-12T21:44:08.017Z,9.30
2023-04-12T21:49:10.814Z,8.80
2023-04-12T21:54:13.487Z,9.45
2023-04-12T21:59:16.651Z,9.35
2023-04-12T22:04:19.401Z,8.27
2023-04-12T22:09:22.174Z,9.60
2023-04-12T22:14:24.785Z,8.90
2023-04-12T22:19:27.617Z,10.13
2023-04-12T22:24:30.695Z,9.20
2023-04-12T22:29:34.366Z,10.45
2023-04-12T22:34:39.722Z,9.77
2023-04-12T22:39:42.888Z,10.85
2023-04-12T22:44:45.519Z,11.00
2023-04-12T22:49:51.091Z,10.43
2023-04-12T22:54:53.755Z,11.75
2023-04-12T22:59:57.856Z,10.43
2023-04-12T23:05:00.923Z,10.95
2023-04-12T23:10:03.983Z,11.05
2023-04-12T23:15:07.172Z,11.52
2023-04-12T23:20:13.440Z,12.48
2023-04-12T23:25:16.180Z,12.43
2023-04-12T23:30:20.389Z,11.27
2023-04-12T23:35:23.007Z,10.85
2023-04-12T23:40:25.717Z,12.80
2023-04-12T23:45:28.357Z,11.75
2023-04-12T23:50:30.984Z,11.93
2023-04-12T23:55:33.728Z,12.40
